sensor_id;sensor_type;location;lat;lon;timestamp;P1;durP1;ratioP1;P2;durP2;ratioP2
77522;SDS011;66637;-29.628;-49.938;2024-01-25T00:00:40;5.97;;;0.77;;
77522;SDS011;66637;-29.628;-49.938;2024-01-25T00:03:12;9.10;;;1.10;;
77522;SDS011;66637;-29.628;-49.938;2024-01-25T00:05:43;6.15;;;1.10;;
77522;SDS011;66637;-29.628;-49.938;2024-01-25T00:08:13;7.78;;;1.75;;
77522;SDS011;66637;-29.628;-49.938;2024-01-25T00:10:45;7.97;;;1.27;;
77522;SDS011;66637;-29.628;-49.938;2024-01-25T00:13:18;7.18;;;1.17;;
77522;SDS011;66637;-29.628;-49.938;2024-01-25T00:15:50;6.40;;;0.93;;
77522;SDS011;66637;-29.628;-49.938;2024-01-25T00:18:25;4.70;;;0.85;;
77522;SDS011;66637;-29.628;-49.938;2024-01-25T00:20:58;9.30;;;1.58;;
77522;SDS011;66637;-29.628;-49.938;2024-01-25T00:23:28;9.77;;;1.50;;
77522;SDS011;66637;-29.628;-49.938;2024-01-25T00:26:00;4.75;;;1.52;;
77522;SDS011;66637;-29.628;-49.938;2024-01-25T00:28:31;8.20;;;1.60;;
77522;SDS011;66637;-29.628;-49.938;2024-01-25T00:31:03;7.07;;;1.00;;
77522;SDS011;66637;-29.628;-49.938;2024-01-25T00:33:37;6.30;;;1.05;;
77522;SDS011;66637;-29.628;-49.938;2024-01-25T00:36:11;8.77;;;2.40;;
77522;SDS011;66637;-29.628;-49.938;2024-01-25T00:38:43;6.03;;;1.40;;
77522;SDS011;66637;-29.628;-49.938;2024-01-25T00:41:16;5.38;;;1.23;;
77522;SDS011;66637;-29.628;-49.938;2024-01-25T00:43:51;6.05;;;1.85;;
77522;SDS011;66637;-29.628;-49.938;2024-01-25T00:46:23;8.68;;;1.17;;
77522;SDS011;66637;-29.628;-49.938;2024-01-25T00:48:56;6.20;;;1.15;;
77522;SDS011;66637;-29.628;-49.938;2024-01-25T00:51:30;8.30;;;1.55;;
77522;SDS011;66637;-29.628;-49.938;2024-01-25T00:54:02;4.95;;;1.17;;
77522;SDS011;66637;-29.628;-49.938;2024-01-25T00:56:33;10.73;;;1.90;;
77522;SDS011;66637;-29.628;-49.938;2024-01-25T00:59:04;7.07;;;1.20;;
77522;SDS011;66637;-29.628;-49.938;2024-01-25T01:01:36;9.10;;;1.30;;
77522;SDS011;66637;-29.628;-49.938;2024-01-25T01:04:08;6.45;;;1.40;;
77522;SDS011;66637;-29.628;-49.938;2024-01-25T01:06:43;6.20;;;0.95;;
77522;SDS011;66637;-29.628;-49.938;2024-01-25T01:09:16;7.15;;;1.10;;
77522;SDS011;66637;-29.628;-49.938;2024-01-25T01:11:47;6.88;;;1.30;;
77522;SDS011;66637;-29.628;-49.938;2024-01-25T01:14:19;7.35;;;1.30;;
77522;SDS011;66637;-29.628;-49.938;2024-01-25T01:16:51;6.22;;;1.30;;
77522;SDS011;66637;-29.628;-49.938;2024-01-25T01:19:21;5.78;;;1.08;;
77522;SDS011;66637;-29.628;-49.938;2024-01-25T01:21:53;6.90;;;1.20;;
77522;SDS011;66637;-29.628;-49.938;2024-01-25T01:24:24;6.00;;;1.35;;
77522;SDS011;66637;-29.628;-49.938;2024-01-25T01:26:57;7.22;;;0.90;;
77522;SDS011;66637;-29.628;-49.938;2024-01-25T01:29:28;7.68;;;1.20;;
77522;SDS011;66637;-29.628;-49.938;2024-01-25T01:31:59;8.43;;;1.40;;
77522;SDS011;66637;-29.628;-49.938;2024-01-25T01:34:32;8.43;;;1.35;;
77522;SDS011;66637;-29.628;-49.938;2024-01-25T01:37:09;10.55;;;1.23;;
77522;SDS011;66637;-29.628;-49.938;2024-01-25T01:39:40;12.45;;;1.30;;
77522;SDS011;66637;-29.628;-49.938;2024-01-25T01:42:13;12.80;;;1.50;;
77522;SDS011;66637;-29.628;-49.938;2024-01-25T01:44:43;10.35;;;1.60;;
77522;SDS011;66637;-29.628;-49.938;2024-01-25T01:47:16;13.20;;;1.85;;
77522;SDS011;66637;-29.628;-49.938;2024-01-25T01:49:48;8.90;;;1.70;;
77522;SDS011;66637;-29.628;-49.938;2024-01-25T01:52:20;10.50;;;1.63;;
77522;SDS011;66637;-29.628;-49.938;2024-01-25T01:54:51;10.25;;;1.42;;
77522;SDS011;66637;-29.628;-49.938;2024-01-25T01:57:22;11.68;;;1.60;;
77522;SDS011;66637;-29.628;-49.938;2024-01-25T02:03:01;8.93;;;1.63;;
77522;SDS011;66637;-29.628;-49.938;2024-01-25T02:05:32;8.43;;;1.55;;
77522;SDS011;66637;-29.628;-49.938;2024-01-25T02:08:04;11.77;;;2.20;;
77522;SDS011;66637;-29.628;-49.938;2024-01-25T02:10:36;12.98;;;1.90;;
77522;SDS011;66637;-29.628;-49.938;2024-01-25T02:13:07;11.30;;;1.80;;
77522;SDS011;66637;-29.628;-49.938;2024-01-25T02:15:40;6.88;;;1.80;;
77522;SDS011;66637;-29.628;-49.938;2024-01-25T02:18:11;5.97;;;1.20;;
77522;SDS011;66637;-29.628;-49.938;2024-01-25T02:20:42;6.22;;;1.42;;
77522;SDS011;66637;-29.628;-49.938;2024-01-25T02:23:13;6.85;;;1.35;;
77522;SDS011;66637;-29.628;-49.938;2024-01-25T02:25:44;10.40;;;1.38;;
77522;SDS011;66637;-29.628;-49.938;2024-01-25T02:28:15;7.00;;;1.40;;
77522;SDS011;66637;-29.628;-49.938;2024-01-25T02:30:46;8.07;;;1.20;;
77522;SDS011;66637;-29.628;-49.938;2024-01-25T02:33:18;5.78;;;1.00;;
77522;SDS011;66637;-29.628;-49.938;2024-01-25T02:35:49;9.20;;;1.35;;
77522;SDS011;66637;-29.628;-49.938;2024-01-25T02:38:20;6.03;;;1.17;;
77522;SDS011;66637;-29.628;-49.938;2024-01-25T02:40:52;8.43;;;1.45;;
77522;SDS011;66637;-29.628;-49.938;2024-01-25T02:43:27;7.70;;;1.40;;
77522;SDS011;66637;-29.628;-49.938;2024-01-25T02:45:57;5.38;;;1.38;;
77522;SDS011;66637;-29.628;-49.938;2024-01-25T02:48:28;6.35;;;1.38;;
77522;SDS011;66637;-29.628;-49.938;2024-01-25T02:50:58;7.93;;;1.10;;
77522;SDS011;66637;-29.628;-49.938;2024-01-25T02:53:29;7.22;;;1.20;;
77522;SDS011;66637;-29.628;-49.938;2024-01-25T02:55:59;6.22;;;1.10;;
77522;SDS011;66637;-29.628;-49.938;2024-01-25T02:58:29;5.53;;;1.23;;
77522;SDS011;66637;-29.628;-49.938;2024-01-25T03:01:06;9.95;;;0.95;;
77522;SDS011;66637;-29.628;-49.938;2024-01-25T03:03:37;5.28;;;0.90;;
77522;SDS011;66637;-29.628;-49.938;2024-01-25T03:06:10;5.10;;;1.05;;
77522;SDS011;66637;-29.628;-49.938;2024-01-25T03:08:43;6.30;;;1.00;;
77522;SDS011;66637;-29.628;-49.938;2024-01-25T03:11:13;5.30;;;0.88;;
77522;SDS011;66637;-29.628;-49.938;2024-01-25T03:13:45;4.97;;;0.90;;
77522;SDS011;66637;-29.628;-49.938;2024-01-25T03:16:15;57.97;;;7.82;;
77522;SDS011;66637;-29.628;-49.938;2024-01-25T03:18:46;17.15;;;2.40;;
77522;SDS011;66637;-29.628;-49.938;2024-01-25T03:21:17;62.72;;;6.55;;
77522;SDS011;66637;-29.628;-49.938;2024-01-25T03:23:47;50.58;;;6.80;;
77522;SDS011;66637;-29.628;-49.938;2024-01-25T03:26:18;40.40;;;5.90;;
77522;SDS011;66637;-29.628;-49.938;2024-01-25T03:28:48;24.23;;;2.88;;
77522;SDS011;66637;-29.628;-49.938;2024-01-25T03:31:18;74.03;;;7.75;;
77522;SDS011;66637;-29.628;-49.938;2024-01-25T03:33:49;44.38;;;5.80;;
77522;SDS011;66637;-29.628;-49.938;2024-01-25T03:36:21;31.10;;;3.97;;
77522;SDS011;66637;-29.628;-49.938;2024-01-25T03:38:51;23.77;;;3.30;;
77522;SDS011;66637;-29.628;-49.938;2024-01-25T03:41:23;53.03;;;7.32;;
77522;SDS011;66637;-29.628;-49.938;2024-01-25T03:43:56;58.28;;;7.10;;
77522;SDS011;66637;-29.628;-49.938;2024-01-25T03:46:32;68.10;;;9.02;;
77522;SDS011;66637;-29.628;-49.938;2024-01-25T03:49:03;56.97;;;7.10;;
77522;SDS011;66637;-29.628;-49.938;2024-01-25T03:51:34;40.03;;;5.07;;
77522;SDS011;66637;-29.628;-49.938;2024-01-25T03:54:08;31.75;;;4.55;;
77522;SDS011;66637;-29.628;-49.938;2024-01-25T03:56:40;43.95;;;5.68;;
77522;SDS011;66637;-29.628;-49.938;2024-01-25T03:59:11;24.58;;;3.42;;
77522;SDS011;66637;-29.628;-49.938;2024-01-25T04:01:45;42.35;;;6.38;;
77522;SDS011;66637;-29.628;-49.938;2024-01-25T04:04:19;46.70;;;5.88;;
77522;SDS011;66637;-29.628;-49.938;2024-01-25T04:06:49;31.55;;;3.60;;
77522;SDS011;66637;-29.628;-49.938;2024-01-25T04:09:20;26.58;;;4.43;;
77522;SDS011;66637;-29.628;-49.938;2024-01-25T04:11:51;34.67;;;5.25;;
77522;SDS011;66637;-29.628;-49.938;2024-01-25T04:14:22;48.80;;;5.70;;
77522;SDS011;66637;-29.628;-49.938;2024-01-25T04:16:52;38.15;;;4.43;;
77522;SDS011;66637;-29.628;-49.938;2024-01-25T04:19:22;74.18;;;8.50;;
77522;SDS011;66637;-29.628;-49.938;2024-01-25T04:21:54;56.92;;;5.75;;
77522;SDS011;66637;-29.628;-49.938;2024-01-25T04:24:24;19.60;;;2.80;;
77522;SDS011;66637;-29.628;-49.938;2024-01-25T04:26:55;14.07;;;3.05;;
77522;SDS011;66637;-29.628;-49.938;2024-01-25T04:29:25;33.35;;;5.07;;
77522;SDS011;66637;-29.628;-49.938;2024-01-25T04:31:56;43.90;;;5.35;;
77522;SDS011;66637;-29.628;-49.938;2024-01-25T04:34:26;27.17;;;4.40;;
77522;SDS011;66637;-29.628;-49.938;2024-01-25T04:36:56;25.08;;;4.07;;
77522;SDS011;66637;-29.628;-49.938;2024-01-25T04:39:27;33.97;;;4.47;;
77522;SDS011;66637;-29.628;-49.938;2024-01-25T04:41:57;25.95;;;5.40;;
77522;SDS011;66637;-29.628;-49.938;2024-01-25T04:44:27;45.85;;;6.03;;
77522;SDS011;66637;-29.628;-49.938;2024-01-25T04:46:58;45.35;;;5.43;;
77522;SDS011;66637;-29.628;-49.938;2024-01-25T04:49:28;54.75;;;6.78;;
77522;SDS011;66637;-29.628;-49.938;2024-01-25T04:51:59;42.97;;;5.20;;
77522;SDS011;66637;-29.628;-49.938;2024-01-25T04:54:30;31.92;;;3.67;;
77522;SDS011;66637;-29.628;-49.938;2024-01-25T04:57:01;55.00;;;7.18;;
77522;SDS011;66637;-29.628;-49.938;2024-01-25T05:02:06;34.30;;;5.60;;
77522;SDS011;66637;-29.628;-49.938;2024-01-25T05:04:38;60.53;;;7.55;;
77522;SDS011;66637;-29.628;-49.938;2024-01-25T05:07:13;45.85;;;6.35;;
77522;SDS011;66637;-29.628;-49.938;2024-01-25T05:09:43;44.00;;;5.90;;
77522;SDS011;66637;-29.628;-49.938;2024-01-25T05:12:14;32.22;;;4.57;;
77522;SDS011;66637;-29.628;-49.938;2024-01-25T05:14:44;33.65;;;3.40;;
77522;SDS011;66637;-29.628;-49.938;2024-01-25T05:17:14;46.58;;;7.05;;
77522;SDS011;66637;-29.628;-49.938;2024-01-25T05:19:45;37.47;;;5.03;;
77522;SDS011;66637;-29.628;-49.938;2024-01-25T05:22:16;40.10;;;4.93;;
77522;SDS011;66637;-29.628;-49.938;2024-01-25T05:24:47;39.28;;;5.75;;
77522;SDS011;66637;-29.628;-49.938;2024-01-25T05:27:19;37.65;;;5.30;;
77522;SDS011;66637;-29.628;-49.938;2024-01-25T05:29:50;57.00;;;6.25;;
77522;SDS011;66637;-29.628;-49.938;2024-01-25T05:32:24;47.00;;;5.20;;
77522;SDS011;66637;-29.628;-49.938;2024-01-25T05:34:56;37.38;;;4.82;;
77522;SDS011;66637;-29.628;-49.938;2024-01-25T05:37:31;33.83;;;3.78;;
77522;SDS011;66637;-29.628;-49.938;2024-01-25T05:40:02;45.20;;;6.03;;
77522;SDS011;66637;-29.628;-49.938;2024-01-25T05:42:35;45.65;;;5.35;;
77522;SDS011;66637;-29.628;-49.938;2024-01-25T05:45:06;48.45;;;6.75;;
77522;SDS011;66637;-29.628;-49.938;2024-01-25T05:47:38;38.92;;;4.38;;
77522;SDS011;66637;-29.628;-49.938;2024-01-25T05:50:10;53.60;;;6.65;;
77522;SDS011;66637;-29.628;-49.938;2024-01-25T05:52:42;39.78;;;5.72;;
77522;SDS011;66637;-29.628;-49.938;2024-01-25T05:55:13;44.33;;;6.03;;
77522;SDS011;66637;-29.628;-49.938;2024-01-25T05:57:45;58.20;;;6.15;;
77522;SDS011;66637;-29.628;-49.938;2024-01-25T06:00:18;54.15;;;6.38;;
77522;SDS011;66637;-29.628;-49.938;2024-01-25T06:02:52;46.05;;;6.35;;
77522;SDS011;66637;-29.628;-49.938;2024-01-25T06:05:24;43.40;;;5.25;;
77522;SDS011;66637;-29.628;-49.938;2024-01-25T06:07:56;46.45;;;5.97;;
77522;SDS011;66637;-29.628;-49.938;2024-01-25T06:10:27;49.30;;;5.50;;
77522;SDS011;66637;-29.628;-49.938;2024-01-25T06:13:00;64.63;;;7.63;;
77522;SDS011;66637;-29.628;-49.938;2024-01-25T06:15:31;47.63;;;6.00;;
77522;SDS011;66637;-29.628;-49.938;2024-01-25T06:18:02;45.40;;;5.95;;
77522;SDS011;66637;-29.628;-49.938;2024-01-25T06:20:35;37.50;;;5.03;;
77522;SDS011;66637;-29.628;-49.938;2024-01-25T06:23:10;49.33;;;5.07;;
77522;SDS011;66637;-29.628;-49.938;2024-01-25T06:25:44;59.05;;;6.90;;
77522;SDS011;66637;-29.628;-49.938;2024-01-25T06:28:15;59.65;;;7.30;;
77522;SDS011;66637;-29.628;-49.938;2024-01-25T06:30:47;24.52;;;3.42;;
77522;SDS011;66637;-29.628;-49.938;2024-01-25T06:33:19;61.28;;;7.97;;
77522;SDS011;66637;-29.628;-49.938;2024-01-25T06:35:49;61.60;;;6.70;;
77522;SDS011;66637;-29.628;-49.938;2024-01-25T06:38:21;41.78;;;5.10;;
77522;SDS011;66637;-29.628;-49.938;2024-01-25T06:40:52;52.03;;;5.93;;
77522;SDS011;66637;-29.628;-49.938;2024-01-25T06:43:23;50.33;;;6.50;;
77522;SDS011;66637;-29.628;-49.938;2024-01-25T06:45:54;40.28;;;6.07;;
77522;SDS011;66637;-29.628;-49.938;2024-01-25T06:48:26;46.63;;;5.32;;
77522;SDS011;66637;-29.628;-49.938;2024-01-25T06:50:57;36.47;;;4.75;;
77522;SDS011;66637;-29.628;-49.938;2024-01-25T06:53:30;49.05;;;7.72;;
77522;SDS011;66637;-29.628;-49.938;2024-01-25T06:56:01;40.13;;;4.70;;
77522;SDS011;66637;-29.628;-49.938;2024-01-25T06:58:33;39.33;;;5.22;;
77522;SDS011;66637;-29.628;-49.938;2024-01-25T07:01:07;42.88;;;5.63;;
77522;SDS011;66637;-29.628;-49.938;2024-01-25T07:03:42;44.95;;;5.20;;
77522;SDS011;66637;-29.628;-49.938;2024-01-25T07:06:17;43.22;;;5.07;;
77522;SDS011;66637;-29.628;-49.938;2024-01-25T07:08:51;42.70;;;4.47;;
77522;SDS011;66637;-29.628;-49.938;2024-01-25T07:11:24;51.80;;;5.20;;
77522;SDS011;66637;-29.628;-49.938;2024-01-25T07:14:02;43.97;;;4.95;;
77522;SDS011;66637;-29.628;-49.938;2024-01-25T07:16:36;56.42;;;6.65;;
77522;SDS011;66637;-29.628;-49.938;2024-01-25T07:19:07;35.30;;;4.43;;
77522;SDS011;66637;-29.628;-49.938;2024-01-25T07:21:40;50.80;;;6.53;;
77522;SDS011;66637;-29.628;-49.938;2024-01-25T07:24:11;63.45;;;7.63;;
77522;SDS011;66637;-29.628;-49.938;2024-01-25T07:26:47;42.10;;;4.82;;
77522;SDS011;66637;-29.628;-49.938;2024-01-25T07:29:20;64.68;;;7.28;;
77522;SDS011;66637;-29.628;-49.938;2024-01-25T07:31:53;39.35;;;4.70;;
77522;SDS011;66637;-29.628;-49.938;2024-01-25T07:34:30;55.13;;;7.00;;
77522;SDS011;66637;-29.628;-49.938;2024-01-25T07:37:00;46.17;;;4.80;;
77522;SDS011;66637;-29.628;-49.938;2024-01-25T07:39:34;74.25;;;9.02;;
77522;SDS011;66637;-29.628;-49.938;2024-01-25T07:42:06;44.28;;;5.07;;
77522;SDS011;66637;-29.628;-49.938;2024-01-25T07:44:37;53.63;;;6.90;;
77522;SDS011;66637;-29.628;-49.938;2024-01-25T07:47:09;41.63;;;5.80;;
77522;SDS011;66637;-29.628;-49.938;2024-01-25T07:49:42;35.22;;;4.25;;
77522;SDS011;66637;-29.628;-49.938;2024-01-25T07:52:15;25.33;;;4.10;;
77522;SDS011;66637;-29.628;-49.938;2024-01-25T07:54:47;44.90;;;5.03;;
77522;SDS011;66637;-29.628;-49.938;2024-01-25T07:57:19;26.58;;;3.05;;
77522;SDS011;66637;-29.628;-49.938;2024-01-25T07:59:50;28.60;;;3.35;;
77522;SDS011;66637;-29.628;-49.938;2024-01-25T08:02:22;47.20;;;5.13;;
77522;SDS011;66637;-29.628;-49.938;2024-01-25T08:04:53;32.47;;;3.25;;
77522;SDS011;66637;-29.628;-49.938;2024-01-25T08:07:28;34.03;;;4.43;;
77522;SDS011;66637;-29.628;-49.938;2024-01-25T08:10:01;36.83;;;4.50;;
77522;SDS011;66637;-29.628;-49.938;2024-01-25T08:12:34;39.78;;;3.92;;
77522;SDS011;66637;-29.628;-49.938;2024-01-25T08:15:06;23.00;;;3.25;;
77522;SDS011;66637;-29.628;-49.938;2024-01-25T08:17:37;39.45;;;4.35;;
77522;SDS011;66637;-29.628;-49.938;2024-01-25T08:20:09;37.63;;;3.75;;
77522;SDS011;66637;-29.628;-49.938;2024-01-25T08:22:44;37.40;;;4.53;;
77522;SDS011;66637;-29.628;-49.938;2024-01-25T08:25:26;36.65;;;3.90;;
77522;SDS011;66637;-29.628;-49.938;2024-01-25T08:27:57;50.72;;;6.82;;
77522;SDS011;66637;-29.628;-49.938;2024-01-25T08:30:28;36.03;;;5.43;;
77522;SDS011;66637;-29.628;-49.938;2024-01-25T08:32:59;33.97;;;4.38;;
77522;SDS011;66637;-29.628;-49.938;2024-01-25T08:35:33;28.88;;;4.47;;
77522;SDS011;66637;-29.628;-49.938;2024-01-25T08:38:05;20.92;;;3.20;;
77522;SDS011;66637;-29.628;-49.938;2024-01-25T08:40:37;31.60;;;4.13;;
77522;SDS011;66637;-29.628;-49.938;2024-01-25T08:43:08;35.92;;;4.28;;
77522;SDS011;66637;-29.628;-49.938;2024-01-25T08:45:42;24.77;;;3.97;;
77522;SDS011;66637;-29.628;-49.938;2024-01-25T08:48:14;47.45;;;5.28;;
77522;SDS011;66637;-29.628;-49.938;2024-01-25T08:50:46;50.47;;;6.15;;
77522;SDS011;66637;-29.628;-49.938;2024-01-25T08:53:24;24.85;;;3.58;;
77522;SDS011;66637;-29.628;-49.938;2024-01-25T08:56:16;42.22;;;4.63;;
77522;SDS011;66637;-29.628;-49.938;2024-01-25T08:58:50;41.88;;;5.55;;
77522;SDS011;66637;-29.628;-49.938;2024-01-25T09:01:22;38.10;;;3.95;;
77522;SDS011;66637;-29.628;-49.938;2024-01-25T09:03:53;35.65;;;5.10;;
77522;SDS011;66637;-29.628;-49.938;2024-01-25T09:06:30;53.05;;;6.18;;
77522;SDS011;66637;-29.628;-49.938;2024-01-25T09:09:05;30.52;;;3.47;;
77522;SDS011;66637;-29.628;-49.938;2024-01-25T09:11:36;36.63;;;3.80;;
77522;SDS011;66637;-29.628;-49.938;2024-01-25T09:14:07;32.85;;;4.57;;
77522;SDS011;66637;-29.628;-49.938;2024-01-25T09:16:39;28.63;;;3.75;;
77522;SDS011;66637;-29.628;-49.938;2024-01-25T09:19:11;32.80;;;5.28;;
77522;SDS011;66637;-29.628;-49.938;2024-01-25T09:21:43;22.85;;;3.90;;
77522;SDS011;66637;-29.628;-49.938;2024-01-25T09:24:13;55.75;;;6.70;;
77522;SDS011;66637;-29.628;-49.938;2024-01-25T09:26:44;33.88;;;4.82;;
77522;SDS011;66637;-29.628;-49.938;2024-01-25T09:29:15;39.17;;;4.05;;
77522;SDS011;66637;-29.628;-49.938;2024-01-25T09:31:45;19.88;;;3.33;;
77522;SDS011;66637;-29.628;-49.938;2024-01-25T09:34:16;33.72;;;4.25;;
77522;SDS011;66637;-29.628;-49.938;2024-01-25T09:36:47;30.75;;;3.70;;
77522;SDS011;66637;-29.628;-49.938;2024-01-25T09:39:18;44.13;;;5.97;;
77522;SDS011;66637;-29.628;-49.938;2024-01-25T09:41:50;29.73;;;3.72;;
77522;SDS011;66637;-29.628;-49.938;2024-01-25T09:44:20;40.03;;;4.30;;
77522;SDS011;66637;-29.628;-49.938;2024-01-25T09:46:52;40.95;;;4.85;;
77522;SDS011;66637;-29.628;-49.938;2024-01-25T09:49:23;24.23;;;3.15;;
77522;SDS011;66637;-29.628;-49.938;2024-01-25T09:51:54;56.72;;;5.97;;
77522;SDS011;66637;-29.628;-49.938;2024-01-25T09:54:26;41.92;;;5.05;;
77522;SDS011;66637;-29.628;-49.938;2024-01-25T09:57:02;44.63;;;4.75;;
77522;SDS011;66637;-29.628;-49.938;2024-01-25T09:59:39;45.75;;;5.40;;
77522;SDS011;66637;-29.628;-49.938;2024-01-25T10:02:14;35.40;;;3.78;;
77522;SDS011;66637;-29.628;-49.938;2024-01-25T10:04:49;35.10;;;3.38;;
77522;SDS011;66637;-29.628;-49.938;2024-01-25T10:10:32;25.08;;;3.72;;
77522;SDS011;66637;-29.628;-49.938;2024-01-25T10:13:03;43.47;;;3.83;;
77522;SDS011;66637;-29.628;-49.938;2024-01-25T10:15:34;32.10;;;3.30;;
77522;SDS011;66637;-29.628;-49.938;2024-01-25T10:18:07;22.48;;;4.03;;
77522;SDS011;66637;-29.628;-49.938;2024-01-25T10:20:56;34.88;;;4.15;;
77522;SDS011;66637;-29.628;-49.938;2024-01-25T10:23:28;34.53;;;4.35;;
77522;SDS011;66637;-29.628;-49.938;2024-01-25T10:25:59;36.40;;;4.30;;
77522;SDS011;66637;-29.628;-49.938;2024-01-25T10:28:32;36.60;;;4.78;;
77522;SDS011;66637;-29.628;-49.938;2024-01-25T10:31:03;44.50;;;5.75;;
77522;SDS011;66637;-29.628;-49.938;2024-01-25T10:33:38;34.53;;;4.15;;
77522;SDS011;66637;-29.628;-49.938;2024-01-25T10:36:09;26.23;;;4.05;;
77522;SDS011;66637;-29.628;-49.938;2024-01-25T10:38:42;65.88;;;7.65;;
77522;SDS011;66637;-29.628;-49.938;2024-01-25T10:41:20;31.27;;;4.10;;
77522;SDS011;66637;-29.628;-49.938;2024-01-25T10:43:57;55.30;;;6.72;;
77522;SDS011;66637;-29.628;-49.938;2024-01-25T10:46:28;45.90;;;5.32;;
77522;SDS011;66637;-29.628;-49.938;2024-01-25T10:49:00;55.35;;;6.38;;
77522;SDS011;66637;-29.628;-49.938;2024-01-25T10:51:33;36.17;;;4.00;;
77522;SDS011;66637;-29.628;-49.938;2024-01-25T10:54:04;38.78;;;4.45;;
77522;SDS011;66637;-29.628;-49.938;2024-01-25T10:56:44;42.08;;;4.93;;
77522;SDS011;66637;-29.628;-49.938;2024-01-25T10:59:17;43.33;;;4.35;;
77522;SDS011;66637;-29.628;-49.938;2024-01-25T11:01:49;33.05;;;3.88;;
77522;SDS011;66637;-29.628;-49.938;2024-01-25T11:04:19;30.63;;;4.63;;
77522;SDS011;66637;-29.628;-49.938;2024-01-25T11:06:50;31.63;;;4.60;;
77522;SDS011;66637;-29.628;-49.938;2024-01-25T11:09:23;32.67;;;4.07;;
77522;SDS011;66637;-29.628;-49.938;2024-01-25T11:11:58;39.20;;;4.00;;
77522;SDS011;66637;-29.628;-49.938;2024-01-25T11:14:29;31.55;;;3.45;;
77522;SDS011;66637;-29.628;-49.938;2024-01-25T11:17:14;45.88;;;5.80;;
77522;SDS011;66637;-29.628;-49.938;2024-01-25T11:19:50;37.08;;;4.22;;
77522;SDS011;66637;-29.628;-49.938;2024-01-25T11:22:21;33.45;;;4.03;;
77522;SDS011;66637;-29.628;-49.938;2024-01-25T11:24:55;26.15;;;3.42;;
77522;SDS011;66637;-29.628;-49.938;2024-01-25T11:27:27;44.30;;;5.78;;
77522;SDS011;66637;-29.628;-49.938;2024-01-25T11:30:02;43.50;;;4.80;;
77522;SDS011;66637;-29.628;-49.938;2024-01-25T11:32:39;28.92;;;4.07;;
77522;SDS011;66637;-29.628;-49.938;2024-01-25T11:35:11;34.83;;;5.15;;
77522;SDS011;66637;-29.628;-49.938;2024-01-25T11:37:54;44.20;;;5.38;;
77522;SDS011;66637;-29.628;-49.938;2024-01-25T11:40:26;61.75;;;6.35;;
77522;SDS011;66637;-29.628;-49.938;2024-01-25T11:43:05;43.42;;;5.43;;
77522;SDS011;66637;-29.628;-49.938;2024-01-25T11:45:41;42.35;;;5.45;;
77522;SDS011;66637;-29.628;-49.938;2024-01-25T11:48:12;45.67;;;4.70;;
77522;SDS011;66637;-29.628;-49.938;2024-01-25T11:50:46;28.73;;;4.13;;
77522;SDS011;66637;-29.628;-49.938;2024-01-25T11:53:18;63.13;;;8.35;;
77522;SDS011;66637;-29.628;-49.938;2024-01-25T11:55:48;54.15;;;5.60;;
77522;SDS011;66637;-29.628;-49.938;2024-01-25T11:58:20;22.00;;;3.47;;
77522;SDS011;66637;-29.628;-49.938;2024-01-25T12:00:52;48.90;;;6.53;;
77522;SDS011;66637;-29.628;-49.938;2024-01-25T12:03:24;43.35;;;5.22;;
77522;SDS011;66637;-29.628;-49.938;2024-01-25T12:05:56;45.00;;;6.00;;
77522;SDS011;66637;-29.628;-49.938;2024-01-25T12:08:28;33.72;;;4.45;;
77522;SDS011;66637;-29.628;-49.938;2024-01-25T12:11:08;29.92;;;4.07;;
77522;SDS011;66637;-29.628;-49.938;2024-01-25T12:13:41;50.40;;;5.80;;
77522;SDS011;66637;-29.628;-49.938;2024-01-25T12:16:12;38.15;;;4.78;;
77522;SDS011;66637;-29.628;-49.938;2024-01-25T12:18:43;53.47;;;8.13;;
77522;SDS011;66637;-29.628;-49.938;2024-01-25T12:21:14;52.92;;;5.47;;
77522;SDS011;66637;-29.628;-49.938;2024-01-25T12:23:45;33.83;;;4.38;;
77522;SDS011;66637;-29.628;-49.938;2024-01-25T12:26:17;33.72;;;4.28;;
77522;SDS011;66637;-29.628;-49.938;2024-01-25T12:28:49;23.55;;;3.17;;
77522;SDS011;66637;-29.628;-49.938;2024-01-25T12:31:20;41.70;;;5.20;;
77522;SDS011;66637;-29.628;-49.938;2024-01-25T12:33:50;33.20;;;4.18;;
77522;SDS011;66637;-29.628;-49.938;2024-01-25T12:36:22;42.22;;;5.63;;
77522;SDS011;66637;-29.628;-49.938;2024-01-25T12:38:52;50.13;;;6.43;;
77522;SDS011;66637;-29.628;-49.938;2024-01-25T12:41:23;31.92;;;5.20;;
77522;SDS011;66637;-29.628;-49.938;2024-01-25T12:43:53;31.58;;;3.47;;
77522;SDS011;66637;-29.628;-49.938;2024-01-25T12:46:24;25.20;;;2.40;;
77522;SDS011;66637;-29.628;-49.938;2024-01-25T12:48:55;41.00;;;6.03;;
77522;SDS011;66637;-29.628;-49.938;2024-01-25T12:51:28;38.28;;;4.90;;
77522;SDS011;66637;-29.628;-49.938;2024-01-25T12:54:00;45.70;;;6.45;;
77522;SDS011;66637;-29.628;-49.938;2024-01-25T12:56:31;29.27;;;3.50;;
77522;SDS011;66637;-29.628;-49.938;2024-01-25T12:59:01;46.72;;;5.10;;
77522;SDS011;66637;-29.628;-49.938;2024-01-25T13:01:31;32.88;;;3.95;;
77522;SDS011;66637;-29.628;-49.938;2024-01-25T13:04:03;33.33;;;3.00;;
77522;SDS011;66637;-29.628;-49.938;2024-01-25T13:06:36;48.42;;;5.65;;
77522;SDS011;66637;-29.628;-49.938;2024-01-25T13:09:07;43.90;;;4.85;;
77522;SDS011;66637;-29.628;-49.938;2024-01-25T13:11:39;31.17;;;3.40;;
77522;SDS011;66637;-29.628;-49.938;2024-01-25T13:14:11;31.50;;;3.28;;
77522;SDS011;66637;-29.628;-49.938;2024-01-25T13:16:42;46.65;;;4.88;;
77522;SDS011;66637;-29.628;-49.938;2024-01-25T13:19:14;43.00;;;4.82;;
77522;SDS011;66637;-29.628;-49.938;2024-01-25T13:21:46;63.20;;;7.03;;
77522;SDS011;66637;-29.628;-49.938;2024-01-25T13:24:19;48.55;;;5.25;;
77522;SDS011;66637;-29.628;-49.938;2024-01-25T13:26:50;35.42;;;4.22;;
77522;SDS011;66637;-29.628;-49.938;2024-01-25T13:29:21;25.50;;;2.38;;
77522;SDS011;66637;-29.628;-49.938;2024-01-25T13:31:51;32.67;;;4.88;;
77522;SDS011;66637;-29.628;-49.938;2024-01-25T13:34:22;27.67;;;3.88;;
77522;SDS011;66637;-29.628;-49.938;2024-01-25T13:36:53;43.90;;;5.60;;
77522;SDS011;66637;-29.628;-49.938;2024-01-25T13:39:26;38.08;;;5.13;;
77522;SDS011;66637;-29.628;-49.938;2024-01-25T13:41:58;55.55;;;6.63;;
77522;SDS011;66637;-29.628;-49.938;2024-01-25T13:44:29;46.58;;;5.30;;
77522;SDS011;66637;-29.628;-49.938;2024-01-25T13:47:02;33.58;;;2.90;;
77522;SDS011;66637;-29.628;-49.938;2024-01-25T13:49:32;71.20;;;8.18;;
77522;SDS011;66637;-29.628;-49.938;2024-01-25T13:52:04;27.55;;;4.15;;
77522;SDS011;66637;-29.628;-49.938;2024-01-25T13:54:35;35.40;;;5.38;;
77522;SDS011;66637;-29.628;-49.938;2024-01-25T13:57:06;28.75;;;3.97;;
77522;SDS011;66637;-29.628;-49.938;2024-01-25T13:59:37;25.42;;;3.28;;
77522;SDS011;66637;-29.628;-49.938;2024-01-25T14:02:09;49.08;;;5.28;;
77522;SDS011;66637;-29.628;-49.938;2024-01-25T14:04:40;35.67;;;4.50;;
77522;SDS011;66637;-29.628;-49.938;2024-01-25T14:07:15;47.63;;;5.18;;
77522;SDS011;66637;-29.628;-49.938;2024-01-25T14:09:47;22.05;;;2.50;;
77522;SDS011;66637;-29.628;-49.938;2024-01-25T14:12:20;40.20;;;4.68;;
77522;SDS011;66637;-29.628;-49.938;2024-01-25T14:14:52;46.20;;;5.53;;
77522;SDS011;66637;-29.628;-49.938;2024-01-25T14:17:24;45.95;;;5.10;;
77522;SDS011;66637;-29.628;-49.938;2024-01-25T14:19:56;43.30;;;6.13;;
77522;SDS011;66637;-29.628;-49.938;2024-01-25T14:22:30;79.45;;;8.65;;
77522;SDS011;66637;-29.628;-49.938;2024-01-25T14:25:04;39.13;;;5.88;;
77522;SDS011;66637;-29.628;-49.938;2024-01-25T14:27:42;56.83;;;7.18;;
77522;SDS011;66637;-29.628;-49.938;2024-01-25T14:30:13;40.28;;;4.00;;
77522;SDS011;66637;-29.628;-49.938;2024-01-25T14:32:46;38.28;;;5.80;;
77522;SDS011;66637;-29.628;-49.938;2024-01-25T14:35:19;40.17;;;5.88;;